createdAt,value
2022-09-24T00:01:19.460Z,29.17
2022-09-24T00:03:51.132Z,26.90
2022-09-24T00:06:21.405Z,29.35
2022-09-24T00:08:50.353Z,31.00
2022-09-24T00:11:18.548Z,32.53
2022-09-24T00:13:45.282Z,31.38
2022-09-24T00:16:13.347Z,32.67
2022-09-24T00:18:40.264Z,31.90
2022-09-24T00:21:17.189Z,30.70
2022-09-24T00:23:43.867Z,31.48
2022-09-24T00:26:30.694Z,30.80
2022-09-24T00:28:58.221Z,27.67
2022-09-24T00:31:25.182Z,29.00
2022-09-24T00:33:52.172Z,28.75
2022-09-24T00:36:20.478Z,31.70
2022-09-24T00:38:54.733Z,28.08
2022-09-24T00:41:24.129Z,31.33
2022-09-24T00:43:51.135Z,28.23
2022-09-24T00:46:28.123Z,29.08
2022-09-24T00:48:58.508Z,30.48
2022-09-24T00:51:26.977Z,31.73
2022-09-24T00:54:00.461Z,29.48
2022-09-24T00:56:28.965Z,31.33
2022-09-24T00:58:56.893Z,30.85
2022-09-24T01:01:24.758Z,32.67
2022-09-24T01:03:53.488Z,28.35
2022-09-24T01:06:19.947Z,31.00
2022-09-24T01:08:46.932Z,31.23
2022-09-24T01:11:19.493Z,29.10
2022-09-24T01:14:21.199Z,29.33
2022-09-24T01:16:53.752Z,28.40
2022-09-24T01:20:01.504Z,32.53
2022-09-24T01:22:43.401Z,28.15
2022-09-24T01:25:45.188Z,28.58
2022-09-24T01:28:50.580Z,28.83
2022-09-24T01:31:26.248Z,30.10
2022-09-24T01:33:53.389Z,30.42
2022-09-24T01:36:22.035Z,30.75
2022-09-24T01:38:49.969Z,31.15
2022-09-24T01:41:17.545Z,31.98
2022-09-24T01:43:44.671Z,30.65
2022-09-24T01:46:12.875Z,30.27
2022-09-24T01:48:40.401Z,35.78
2022-09-24T01:51:23.628Z,34.13
2022-09-24T01:53:54.847Z,24.23
2022-09-24T01:56:25.534Z,32.95
2022-09-24T01:58:55.777Z,31.52
2022-09-24T02:01:32.527Z,32.28
2022-09-24T02:04:05.699Z,29.05
2022-09-24T02:07:02.266Z,29.10
2022-09-24T02:09:34.311Z,28.33
2022-09-24T02:12:26.485Z,33.92
2022-09-24T02:15:03.935Z,30.50
2022-09-24T02:17:33.590Z,32.28
2022-09-24T02:20:01.696Z,31.27
2022-09-24T02:22:29.796Z,31.13
2022-09-24T02:24:58.427Z,37.60
2022-09-24T02:27:27.909Z,36.85
2022-09-24T02:29:56.048Z,35.08
2022-09-24T02:32:23.556Z,31.73
2022-09-24T02:34:56.736Z,32.65
2022-09-24T02:37:24.607Z,34.88
2022-09-24T02:39:51.389Z,36.78
2022-09-24T02:42:19.291Z,31.63
2022-09-24T02:44:47.422Z,35.17
2022-09-24T02:47:14.366Z,36.47
2022-09-24T02:49:40.939Z,32.28
2022-09-24T02:52:07.503Z,29.60
2022-09-24T02:54:34.271Z,34.58
2022-09-24T02:57:00.741Z,30.90
2022-09-24T02:59:27.209Z,31.98
2022-09-24T03:01:53.802Z,28.77
2022-09-24T03:04:21.735Z,32.65
2022-09-24T03:06:48.206Z,32.30
2022-09-24T03:09:14.807Z,35.25
2022-09-24T03:11:41.306Z,37.03
2022-09-24T03:14:07.865Z,33.35
2022-09-24T03:16:34.586Z,32.17
2022-09-24T03:19:01.136Z,35.80
2022-09-24T03:21:27.593Z,33.53
2022-09-24T03:23:54.062Z,36.25
2022-09-24T03:26:20.622Z,35.05
2022-09-24T03:28:47.094Z,40.30
2022-09-24T03:31:13.981Z,32.92
2022-09-24T03:33:42.955Z,33.42
2022-09-24T03:36:18.898Z,37.53
2022-09-24T03:38:46.559Z,30.02
2022-09-24T03:41:13.295Z,38.40
2022-09-24T03:43:39.797Z,30.65
2022-09-24T03:46:07.339Z,33.05
2022-09-24T03:48:35.981Z,30.95
2022-09-24T03:51:07.741Z,32.42
2022-09-24T03:53:34.222Z,34.92
2022-09-24T03:56:02.387Z,31.25
2022-09-24T03:58:31.596Z,34.10
2022-09-24T04:00:58.415Z,31.63
2022-09-24T04:03:25.230Z,30.55
2022-09-24T04:05:51.870Z,32.85
2022-09-24T04:08:19.523Z,30.05
2022-09-24T04:10:46.713Z,30.52
2022-09-24T04:13:13.299Z,29.88
2022-09-24T04:15:40.901Z,35.00
2022-09-24T04:18:07.392Z,36.88
2022-09-24T04:20:34.686Z,31.00
2022-09-24T04:23:01.441Z,36.50
2022-09-24T04:25:30.603Z,34.35
2022-09-24T04:28:02.756Z,33.55
2022-09-24T04:30:30.333Z,34.72
2022-09-24T04:33:00.720Z,37.92
2022-09-24T04:35:29.797Z,32.55
2022-09-24T04:37:57.263Z,31.77
2022-09-24T04:40:23.807Z,30.75
2022-09-24T04:42:50.416Z,34.22
2022-09-24T04:45:20.101Z,33.60
2022-09-24T04:47:52.460Z,32.90
2022-09-24T04:50:19.693Z,32.45
2022-09-24T04:52:46.211Z,29.55
2022-09-24T04:55:12.752Z,30.90
2022-09-24T04:57:41.106Z,30.88
2022-09-24T05:00:11.276Z,29.15
2022-09-24T05:02:37.832Z,29.83
2022-09-24T05:05:04.554Z,29.70
2022-09-24T05:07:31.047Z,31.05
2022-09-24T05:09:57.622Z,35.58
2022-09-24T05:12:24.089Z,33.50
2022-09-24T05:14:50.558Z,31.63
2022-09-24T05:17:17.014Z,34.08
2022-09-24T05:19:43.640Z,30.17
2022-09-24T05:22:10.195Z,31.33
2022-09-24T05:24:36.656Z,29.33
2022-09-24T05:27:09.708Z,34.25
2022-09-24T05:29:40.273Z,21.20
2022-09-24T05:32:08.391Z,33.30
2022-09-24T05:34:35.035Z,31.98
2022-09-24T05:37:02.199Z,34.88
2022-09-24T05:39:33.663Z,30.60
2022-09-24T05:42:03.617Z,35.22
2022-09-24T05:44:31.134Z,33.78
2022-09-24T05:46:57.812Z,33.65
2022-09-24T05:49:24.556Z,31.67
2022-09-24T05:51:51.449Z,33.00
2022-09-24T05:54:19.037Z,32.10
2022-09-24T05:56:46.105Z,36.53
2022-09-24T05:59:13.117Z,31.02
2022-09-24T06:01:39.677Z,31.25
2022-09-24T06:04:08.820Z,28.92
2022-09-24T06:06:35.811Z,29.30
2022-09-24T06:09:02.309Z,35.67
2022-09-24T06:11:39.039Z,35.65
2022-09-24T06:14:06.815Z,36.38
2022-09-24T06:16:34.330Z,32.40
2022-09-24T06:19:01.222Z,31.42
2022-09-24T06:21:27.755Z,31.00
2022-09-24T06:23:54.212Z,34.40
2022-09-24T06:26:20.732Z,35.70
2022-09-24T06:28:47.214Z,32.08
2022-09-24T06:31:13.822Z,34.85
2022-09-24T06:33:40.923Z,32.05
2022-09-24T06:36:07.574Z,30.48
2022-09-24T06:38:35.290Z,29.73
2022-09-24T06:41:03.592Z,31.60
2022-09-24T06:43:30.828Z,31.45
2022-09-24T06:45:58.319Z,32.67
2022-09-24T06:48:24.824Z,27.40
2022-09-24T06:50:51.518Z,29.35
2022-09-24T06:53:18.594Z,29.20
2022-09-24T06:55:50.926Z,28.23
2022-09-24T06:58:20.997Z,28.23
2022-09-24T07:00:58.224Z,30.23
2022-09-24T07:03:27.071Z,28.55
2022-09-24T07:05:53.589Z,29.40
2022-09-24T07:08:20.066Z,30.35
2022-09-24T07:10:49.097Z,28.95
2022-09-24T07:13:16.149Z,30.88
2022-09-24T07:15:43.258Z,30.70
2022-09-24T07:18:10.197Z,29.98
2022-09-24T07:20:36.972Z,31.55
2022-09-24T07:23:07.730Z,29.55
2022-09-24T07:25:34.221Z,33.00
2022-09-24T07:28:05.889Z,32.92
2022-09-24T07:30:33.537Z,34.40
2022-09-24T07:33:00.217Z,33.47
2022-09-24T07:35:27.752Z,33.20
2022-09-24T07:38:01.840Z,32.67
2022-09-24T07:40:29.247Z,32.78
2022-09-24T07:42:55.894Z,35.28
2022-09-24T07:45:23.565Z,34.55
2022-09-24T07:48:03.764Z,35.63
2022-09-24T07:50:32.307Z,37.33
2022-09-24T07:52:59.244Z,36.63
2022-09-24T07:55:27.190Z,41.50
2022-09-24T07:57:55.038Z,35.50
2022-09-24T08:00:23.428Z,37.20
2022-09-24T08:02:53.790Z,46.03
2022-09-24T08:05:20.421Z,37.47
2022-09-24T08:07:53.755Z,39.35
2022-09-24T08:10:20.322Z,40.80
2022-09-24T08:12:57.096Z,46.50
2022-09-24T08:15:24.013Z,67.22
2022-09-24T08:17:51.131Z,52.03
2022-09-24T08:20:17.729Z,50.35
2022-09-24T08:22:44.223Z,48.78
2022-09-24T08:25:10.758Z,47.13
2022-09-24T08:27:37.458Z,51.28
2022-09-24T08:30:05.388Z,51.00
2022-09-24T08:32:31.983Z,48.90
2022-09-24T08:34:58.570Z,48.42
2022-09-24T08:37:25.246Z,49.53
2022-09-24T08:39:51.821Z,49.55
2022-09-24T08:42:42.242Z,47.08
2022-09-24T08:45:28.918Z,43.28
2022-09-24T08:48:00.299Z,41.88
2022-09-24T08:50:34.266Z,45.80
2022-09-24T08:53:21.230Z,46.10
2022-09-24T08:55:49.995Z,43.28
2022-09-24T08:58:44.774Z,44.22
2022-09-24T09:01:11.400Z,46.05
2022-09-24T09:03:48.117Z,44.15
2022-09-24T09:06:42.011Z,42.22
2022-09-24T09:09:15.146Z,45.05
2022-09-24T09:11:47.118Z,48.65
2022-09-24T09:14:43.165Z,48.45
2022-09-24T09:17:48.047Z,45.05
2022-09-24T09:20:19.395Z,49.08
2022-09-24T09:22:50.980Z,48.92
2022-09-24T09:25:19.847Z,45.08
2022-09-24T09:27:51.273Z,46.33
2022-09-24T09:30:20.646Z,43.10
2022-09-24T09:33:05.099Z,44.63
2022-09-24T09:35:38.063Z,43.08
2022-09-24T09:38:11.440Z,42.90
2022-09-24T09:40:45.576Z,44.38
2022-09-24T09:43:13.560Z,44.10
2022-09-24T09:46:07.651Z,41.35
2022-09-24T09:51:22.604Z,38.72
2022-09-24T09:53:58.042Z,37.17
2022-09-24T09:56:28.016Z,39.45
2022-09-24T09:59:03.566Z,37.72
2022-09-24T10:01:35.104Z,37.55
2022-09-24T10:04:03.055Z,37.13
2022-09-24T10:06:31.910Z,42.75
2022-09-24T10:09:12.750Z,35.63
2022-09-24T10:11:39.337Z,36.90
2022-09-24T10:14:08.819Z,33.60
2022-09-24T10:16:40.474Z,33.72
2022-09-24T10:19:16.101Z,33.60
2022-09-24T10:21:42.781Z,35.83
2022-09-24T10:24:21.307Z,31.35
2022-09-24T10:26:47.954Z,32.83
2022-09-24T10:29:49.808Z,30.95
2022-09-24T10:32:18.167Z,30.55
2022-09-24T10:35:00.928Z,29.20
2022-09-24T10:37:28.047Z,28.15
2022-09-24T10:40:03.410Z,27.00
2022-09-24T10:42:30.554Z,28.65
2022-09-24T10:45:01.108Z,27.27
2022-09-24T10:47:52.569Z,25.88
2022-09-24T10:51:00.258Z,25.38
2022-09-24T10:53:49.846Z,26.90
2022-09-24T10:56:38.186Z,23.75
2022-09-24T10:59:18.271Z,24.75
2022-09-24T11:01:51.625Z,24.35
2022-09-24T11:04:24.116Z,23.02
2022-09-24T11:07:45.685Z,22.95
2022-09-24T11:10:16.220Z,22.50
2022-09-24T11:13:10.449Z,21.75
2022-09-24T11:18:46.795Z,20.65
2022-09-24T11:21:19.432Z,16.38
2022-09-24T11:24:07.949Z,18.00
2022-09-24T11:27:17.745Z,16.20
2022-09-24T11:29:55.132Z,14.30
2022-09-24T11:32:31.147Z,13.48
2022-09-24T11:35:19.358Z,16.80
2022-09-24T11:38:07.708Z,14.90
2022-09-24T11:40:53.069Z,16.70
2022-09-24T11:43:37.484Z,13.82
2022-09-24T11:46:22.308Z,11.60
2022-09-24T11:49:09.452Z,13.82
2022-09-24T11:51:54.616Z,14.73
2022-09-24T11:54:30.409Z,14.98
2022-09-24T11:57:03.019Z,13.25
2022-09-24T11:59:42.486Z,16.27
2022-09-24T12:02:23.913Z,11.52
2022-09-24T12:05:03.762Z,12.57
2022-09-24T12:07:39.663Z,8.73
2022-09-24T12:10:26.043Z,10.70
2022-09-24T12:12:54.641Z,15.82
2022-09-24T12:15:27.779Z,11.07
2022-09-24T12:18:17.303Z,12.70
2022-09-24T12:20:49.693Z,12.75
2022-09-24T12:23:20.702Z,9.73
2022-09-24T12:25:49.318Z,7.60
2022-09-24T12:28:37.291Z,11.18
2022-09-24T12:31:31.839Z,11.48
2022-09-24T12:34:21.778Z,15.18
2022-09-24T12:36:57.896Z,9.32
2022-09-24T12:39:38.777Z,10.38
2022-09-24T12:42:08.296Z,11.15
2022-09-24T12:44:37.300Z,8.75
2022-09-24T12:47:04.196Z,10.35
2022-09-24T12:49:34.310Z,7.43
2022-09-24T12:52:17.023Z,7.75
2022-09-24T12:54:44.371Z,8.63
2022-09-24T12:57:21.301Z,7.47
2022-09-24T13:00:01.825Z,6.40
2022-09-24T13:02:50.797Z,8.57
2022-09-24T13:05:27.731Z,7.72
2022-09-24T13:07:59.046Z,7.75
2022-09-24T13:10:27.451Z,7.75
2022-09-24T13:12:54.302Z,6.22
2022-09-24T13:15:28.690Z,10.27
2022-09-24T13:18:11.094Z,7.90
2022-09-24T13:20:46.151Z,6.80
2022-09-24T13:23:19.963Z,9.63
2022-09-24T13:25:59.991Z,7.55
2022-09-24T13:28:37.740Z,8.45
2022-09-24T13:31:22.489Z,7.32
2022-09-24T13:33:55.009Z,9.65
2022-09-24T13:36:49.689Z,5.85
2022-09-24T13:39:28.008Z,8.82
2022-09-24T13:42:16.444Z,8.68
2022-09-24T13:44:45.758Z,7.63
2022-09-24T13:47:33.520Z,7.47
2022-09-24T13:50:09.322Z,6.50
2022-09-24T13:52:40.740Z,6.28
2022-09-24T13:55:35.065Z,7.80
2022-09-24T13:58:01.560Z,8.23
2022-09-24T14:00:29.472Z,8.35
2022-09-24T14:03:19.538Z,7.80
2022-09-24T14:05:46.209Z,5.95
2022-09-24T14:08:14.668Z,5.95
2022-09-24T14:10:41.818Z,5.43
2022-09-24T14:13:21.609Z,3.97
2022-09-24T14:15:51.436Z,5.00
2022-09-24T14:18:20.351Z,5.85
2022-09-24T14:20:53.854Z,7.60
2022-09-24T14:23:24.093Z,5.10
2022-09-24T14:25:51.870Z,6.82
2022-09-24T14:28:19.286Z,5.05
2022-09-24T14:30:54.479Z,4.28
2022-09-24T14:33:25.827Z,5.93
2022-09-24T14:35:54.438Z,6.35
2022-09-24T14:38:26.471Z,4.90
2022-09-24T14:40:56.703Z,5.03
2022-09-24T14:43:43.300Z,4.60
2022-09-24T14:46:30.808Z,3.83
2022-09-24T14:49:27.672Z,6.55
2022-09-24T14:52:01.816Z,3.35
2022-09-24T14:54:42.964Z,5.93
2022-09-24T14:57:27.449Z,5.57
2022-09-24T14:59:53.945Z,7.00
2022-09-24T15:02:33.465Z,7.38
2022-09-24T15:05:06.127Z,5.75
2022-09-24T15:07:34.423Z,7.38
2022-09-24T15:10:02.654Z,7.20
2022-09-24T15:12:34.317Z,5.65
2022-09-24T15:15:17.347Z,3.40
2022-09-24T15:17:47.052Z,3.53
2022-09-24T15:20:14.005Z,4.95
2022-09-24T15:22:40.490Z,7.70
2022-09-24T15:25:07.468Z,5.45
2022-09-24T15:27:37.960Z,4.65
2022-09-24T15:30:07.913Z,5.45
2022-09-24T15:32:35.884Z,2.58
2022-09-24T15:35:07.555Z,4.18
2022-09-24T15:37:34.383Z,4.97
2022-09-24T15:40:30.785Z,6.00
2022-09-24T15:42:57.407Z,6.28
2022-09-24T15:45:24.994Z,5.53
2022-09-24T15:47:53.515Z,4.55
2022-09-24T15:50:21.233Z,5.55
2022-09-24T15:52:54.401Z,6.72
2022-09-24T15:55:22.241Z,6.47
2022-09-24T15:57:48.729Z,6.28
2022-09-24T16:00:20.959Z,9.70
2022-09-24T16:02:52.442Z,5.70
2022-09-24T16:05:19.047Z,7.65
2022-09-24T16:07:45.579Z,7.95
2022-09-24T16:10:13.774Z,6.00
2022-09-24T16:12:41.283Z,5.70
2022-09-24T16:15:08.356Z,6.05
2022-09-24T16:17:34.931Z,5.43
2022-09-24T16:20:01.881Z,5.53
2022-09-24T16:22:28.367Z,8.75
2022-09-24T16:24:54.819Z,5.97
2022-09-24T16:27:21.267Z,7.80
2022-09-24T16:29:47.813Z,5.50
2022-09-24T16:32:14.439Z,5.95
2022-09-24T16:34:41.102Z,5.97
2022-09-24T16:37:08.468Z,6.45
2022-09-24T16:39:34.933Z,4.43
2022-09-24T16:42:01.723Z,4.63
2022-09-24T16:44:28.259Z,5.80
2022-09-24T16:46:54.790Z,4.25
2022-09-24T16:49:22.924Z,6.95
2022-09-24T16:51:49.428Z,4.18
2022-09-24T16:54:15.972Z,7.80
2022-09-24T16:56:42.564Z,4.32
2022-09-24T16:59:10.362Z,4.22
2022-09-24T17:01:36.948Z,4.97
2022-09-24T17:04:03.418Z,5.53
2022-09-24T17:06:30.906Z,7.57
2022-09-24T17:09:16.408Z,3.80
2022-09-24T17:11:42.985Z,4.05
2022-09-24T17:14:12.200Z,5.10
2022-09-24T17:16:39.724Z,5.45
2022-09-24T17:19:07.919Z,4.65
2022-09-24T17:21:36.124Z,4.63
2022-09-24T17:24:02.896Z,3.45
2022-09-24T17:26:29.384Z,3.53
2022-09-24T17:28:57.031Z,3.00
2022-09-24T17:31:25.236Z,6.70
2022-09-24T17:34:03.270Z,4.30
2022-09-24T17:36:31.699Z,4.82
2022-09-24T17:38:59.332Z,4.05
2022-09-24T17:41:26.248Z,6.13
2022-09-24T17:43:52.727Z,4.78
2022-09-24T17:46:22.213Z,4.45
2022-09-24T17:48:54.559Z,4.03
2022-09-24T17:51:26.616Z,4.32
2022-09-24T17:53:54.848Z,4.18
2022-09-24T17:56:23.504Z,6.47
2022-09-24T17:58:50.324Z,6.55
2022-09-24T18:01:25.392Z,4.90
2022-09-24T18:03:56.682Z,5.00
2022-09-24T18:06:28.121Z,6.30
2022-09-24T18:08:57.398Z,5.70
2022-09-24T18:11:26.040Z,4.45
2022-09-24T18:13:54.163Z,5.90
2022-09-24T18:16:22.376Z,6.45
2022-09-24T18:18:51.771Z,5.55
2022-09-24T18:21:21.770Z,5.72
2022-09-24T18:23:48.560Z,6.45
2022-09-24T18:26:19.811Z,5.50
2022-09-24T18:28:46.219Z,6.85
2022-09-24T18:31:13.086Z,4.22
2022-09-24T18:33:43.533Z,5.00
2022-09-24T18:36:15.322Z,7.65
2022-09-24T18:38:44.199Z,6.50
2022-09-24T18:41:24.121Z,5.90
2022-09-24T18:43:52.250Z,5.57
2022-09-24T18:46:21.489Z,4.85
2022-09-24T18:48:50.976Z,5.40
2022-09-24T18:51:26.477Z,6.43
2022-09-24T18:53:57.029Z,4.82
2022-09-24T18:56:24.219Z,2.47
2022-09-24T18:59:09.469Z,5.30
2022-09-24T19:01:36.907Z,7.07
2022-09-24T19:04:03.747Z,6.35
2022-09-24T19:06:30.840Z,5.38
2022-09-24T19:08:57.348Z,6.88
2022-09-24T19:11:23.933Z,6.55
2022-09-24T19:13:52.805Z,6.10
2022-09-24T19:16:23.571Z,5.55
2022-09-24T19:18:51.644Z,6.50
2022-09-24T19:21:18.437Z,5.55
2022-09-24T19:23:47.376Z,5.75
2022-09-24T19:26:17.681Z,6.65
2022-09-24T19:28:45.021Z,6.05
2022-09-24T19:31:17.075Z,5.20
2022-09-24T19:33:44.133Z,7.95
2022-09-24T19:36:11.206Z,6.75
2022-09-24T19:38:37.898Z,7.18
2022-09-24T19:41:06.944Z,5.50
2022-09-24T19:43:34.275Z,5.72
2022-09-24T19:46:05.971Z,6.38
2022-09-24T19:48:37.400Z,5.80
2022-09-24T19:51:13.209Z,3.38
2022-09-24T19:53:42.751Z,7.22
2022-09-24T19:56:10.881Z,6.47
2022-09-24T19:58:37.470Z,5.38
2022-09-24T20:01:05.955Z,6.35
2022-09-24T20:03:33.689Z,5.38
2022-09-24T20:06:00.555Z,7.15
2022-09-24T20:08:27.242Z,8.07
2022-09-24T20:10:54.027Z,5.20
2022-09-24T20:13:20.973Z,5.22
2022-09-24T20:15:57.672Z,5.72
2022-09-24T20:18:24.223Z,6.15
2022-09-24T20:20:53.484Z,4.60
2022-09-24T20:23:21.003Z,7.10
2022-09-24T20:26:09.896Z,6.57
2022-09-24T20:28:39.764Z,6.75
2022-09-24T20:31:19.790Z,7.68
2022-09-24T20:33:47.678Z,5.93
2022-09-24T20:36:16.679Z,6.25
2022-09-24T20:38:46.188Z,5.47
2022-09-24T20:41:15.223Z,6.70
2022-09-24T20:43:41.692Z,7.65
2022-09-24T20:46:10.461Z,6.80
2022-09-24T20:48:37.301Z,4.32
2022-09-24T20:51:14.498Z,9.60
2022-09-24T20:53:41.874Z,6.53
2022-09-24T20:56:09.170Z,6.28
2022-09-24T20:58:36.700Z,4.75
2022-09-24T21:01:04.493Z,6.57
2022-09-24T21:03:43.993Z,4.03
2022-09-24T21:06:12.330Z,5.72
2022-09-24T21:08:43.167Z,5.05
2022-09-24T21:11:11.645Z,6.18
2022-09-24T21:13:44.586Z,6.63
2022-09-24T21:16:11.749Z,4.75
2022-09-24T21:18:40.678Z,4.47
2022-09-24T21:21:11.510Z,5.05
2022-09-24T21:23:39.544Z,4.88
2022-09-24T21:26:14.392Z,3.92
2022-09-24T21:28:43.156Z,6.60
2022-09-24T21:31:10.208Z,4.43
2022-09-24T21:33:36.980Z,4.32
2022-09-24T21:36:05.750Z,4.38
2022-09-24T21:38:32.563Z,7.57
2022-09-24T21:41:01.184Z,4.03
2022-09-24T21:43:32.361Z,4.10
2022-09-24T21:46:03.998Z,4.65
2022-09-24T21:48:37.271Z,3.28
2022-09-24T21:51:05.449Z,3.97
2022-09-24T21:53:33.354Z,5.90
2022-09-24T21:55:59.912Z,4.05
2022-09-24T21:58:26.552Z,2.40
2022-09-24T22:00:53.523Z,4.68
2022-09-24T22:03:20.867Z,3.50
2022-09-24T22:05:48.200Z,4.13
2022-09-24T22:08:15.434Z,4.05
2022-09-24T22:10:44.306Z,5.18
2022-09-24T22:13:16.355Z,2.67
2022-09-24T22:15:45.626Z,3.40
2022-09-24T22:18:12.082Z,4.82
2022-09-24T22:20:43.398Z,3.60
2022-09-24T22:23:10.636Z,3.75
2022-09-24T22:25:37.768Z,3.42
2022-09-24T22:28:04.564Z,8.35
2022-09-24T22:30:31.316Z,3.28
2022-09-24T22:32:57.958Z,3.78
2022-09-24T22:35:43.709Z,5.18
2022-09-24T22:38:10.196Z,4.03
2022-09-24T22:40:36.739Z,3.80
2022-09-24T22:43:03.236Z,3.85
2022-09-24T22:45:29.711Z,4.05
2022-09-24T22:47:56.695Z,2.65
2022-09-24T22:50:23.191Z,4.57
2022-09-24T22:52:50.154Z,5.68
2022-09-24T22:55:16.752Z,3.00
2022-09-24T22:57:43.227Z,5.85
2022-09-24T23:00:10.203Z,6.20
2022-09-24T23:02:36.651Z,2.65
2022-09-24T23:05:03.376Z,3.60
2022-09-24T23:07:29.906Z,3.30
2022-09-24T23:09:56.386Z,4.82
2022-09-24T23:12:22.896Z,3.05
2022-09-24T23:14:52.439Z,2.88
2022-09-24T23:17:20.241Z,4.07
2022-09-24T23:19:49.523Z,2.38
2022-09-24T23:22:17.067Z,3.15
2022-09-24T23:24:44.041Z,3.22
2022-09-24T23:27:10.593Z,4.45
2022-09-24T23:29:37.477Z,5.05
2022-09-24T23:32:04.350Z,4.90
2022-09-24T23:34:30.854Z,3.53
2022-09-24T23:36:57.334Z,2.92
2022-09-24T23:39:23.844Z,5.18
2022-09-24T23:41:50.763Z,4.45
2022-09-24T23:44:17.252Z,2.63
2022-09-24T23:46:44.053Z,3.97
2022-09-24T23:49:11.091Z,2.85
2022-09-24T23:51:37.631Z,6.55
2022-09-24T23:54:04.370Z,3.90
2022-09-24T23:56:31.383Z,3.42
2022-09-24T23:58:57.926Z,3.45
